Time,TemperatureF,DewpointF,PressureIn,WindDirection,WindDirectionDegrees,WindSpeedMPH,WindSpeedGustMPH,Humidity,HourlyPrecipIn,Conditions,Clouds,dailyrainin,SoftwareType,DateUTC
2013-07-27 00:11:00,49.8,44.8,29.99,NE,45,0.0,-999.0,83,-99.99,,,0.00,Acu-Link.com,2013-07-27 05:11:00,
2013-07-27 00:27:00,49.5,44.6,29.99,NE,45,0.0,-999.0,83,-99.99,,,0.00,Acu-Link.com,2013-07-27 05:27:00,
2013-07-27 00:42:00,49.3,44.4,29.99,NNE,22,0.0,-999.0,83,-99.99,,,0.00,Acu-Link.com,2013-07-27 05:42:00,
2013-07-27 00:57:00,48.9,44.0,29.99,NW,315,0.0,-999.0,83,-99.99,,,0.00,Acu-Link.com,2013-07-27 05:57:00,
2013-07-27 01:12:00,48.7,43.8,29.98,NNE,22,0.0,-999.0,83,-99.99,,,0.00,Acu-Link.com,2013-07-27 06:12:00,
2013-07-27 01:27:00,48.6,43.7,29.98,NW,315,0.0,-999.0,83,-99.99,,,0.00,Acu-Link.com,2013-07-27 06:27:00,
2013-07-27 01:42:00,48.0,43.1,29.98,NW,315,0.0,-999.0,83,-99.99,,,0.00,Acu-Link.com,2013-07-27 06:42:00,
2013-07-27 01:57:00,47.5,42.9,29.98,West,270,0.0,-999.0,84,-99.99,,,0.00,Acu-Link.com,2013-07-27 06:57:00,
2013-07-27 02:13:00,47.3,42.7,29.98,WNW,292,0.0,-999.0,84,-99.99,,,0.00,Acu-Link.com,2013-07-27 07:13:00,
2013-07-27 02:28:00,46.8,42.2,29.98,West,270,0.0,-999.0,84,-99.99,,,0.00,Acu-Link.com,2013-07-27 07:28:00,
2013-07-27 02:43:00,46.6,42.3,29.98,NNE,22,0.0,-999.0,85,-99.99,,,0.00,Acu-Link.com,2013-07-27 07:43:00,
2013-07-27 02:58:00,46.4,42.1,29.98,NNE,22,0.0,-999.0,85,-99.99,,,0.00,Acu-Link.com,2013-07-27 07:58:00,
2013-07-27 03:14:00,46.2,41.9,29.97,NNW,337,0.0,-999.0,85,-99.99,,,0.00,Acu-Link.com,2013-07-27 08:14:00,
2013-07-27 03:29:00,45.7,41.5,29.97,WNW,292,0.0,-999.0,85,-99.99,,,0.00,Acu-Link.com,2013-07-27 08:29:00,
2013-07-27 03:44:00,45.1,40.9,29.97,WNW,292,0.0,-999.0,85,-99.99,,,0.00,Acu-Link.com,2013-07-27 08:44:00,
2013-07-27 03:59:00,45.0,40.8,29.97,WNW,292,0.0,-999.0,85,-99.99,,,0.00,Acu-Link.com,2013-07-27 08:59:00,
2013-07-27 04:15:00,44.8,40.6,29.97,North,0,0.0,-999.0,85,-99.99,,,0.00,Acu-Link.com,2013-07-27 09:15:00,
2013-07-27 04:30:00,44.6,40.7,29.97,NNE,22,0.0,-999.0,86,-99.99,,,0.00,Acu-Link.com,2013-07-27 09:30:00,
2013-07-27 04:45:00,44.4,40.5,29.97,NNE,22,0.0,-999.0,86,-99.99,,,0.00,Acu-Link.com,2013-07-27 09:45:00,
2013-07-27 05:00:00,44.2,40.3,29.97,NNE,22,0.0,-999.0,86,-99.99,,,0.00,Acu-Link.com,2013-07-27 10:00:00,
2013-07-27 05:15:00,44.2,40.3,29.97,NNE,22,0.0,-999.0,86,-99.99,,,0.00,Acu-Link.com,2013-07-27 10:15:00,
2013-07-27 05:31:00,44.2,40.6,29.98,NNW,337,0.0,-999.0,87,-99.99,,,0.00,Acu-Link.com,2013-07-27 10:31:00,
2013-07-27 06:32:00,46.9,43.2,29.98,West,270,0.0,-999.0,87,-99.99,,,0.00,Acu-Link.com,2013-07-27 11:32:00,
2013-07-27 06:47:00,47.8,43.8,29.98,NNW,337,1.7,-999.0,86,-99.99,,,0.00,Acu-Link.com,2013-07-27 11:47:00,
2013-07-27 07:02:00,48.6,44.6,29.98,West,270,2.7,-999.0,86,-99.99,,,0.00,Acu-Link.com,2013-07-27 12:02:00,
2013-07-27 07:17:00,49.3,45.0,29.97,West,270,1.7,-999.0,85,-99.99,,,0.00,Acu-Link.com,2013-07-27 12:17:00,
2013-07-27 07:32:00,50.9,46.2,29.98,West,270,2.2,-999.0,84,-99.99,,,0.00,Acu-Link.com,2013-07-27 12:32:00,
2013-07-27 07:48:00,51.4,46.1,29.98,NNE,22,0.0,-999.0,82,-99.99,,,0.00,Acu-Link.com,2013-07-27 12:48:00,
2013-07-27 08:03:00,52.3,46.3,29.98,NE,45,0.0,-999.0,80,-99.99,,,0.00,Acu-Link.com,2013-07-27 13:03:00,
2013-07-27 08:18:00,53.2,46.2,29.97,West,270,2.2,-999.0,77,-99.99,,,0.00,Acu-Link.com,2013-07-27 13:18:00,
2013-07-27 08:33:00,55.4,46.5,29.97,West,270,3.2,-999.0,72,-99.99,,,0.00,Acu-Link.com,2013-07-27 13:33:00,
2013-07-27 08:48:00,56.7,47.0,29.97,NNW,337,0.0,-999.0,70,-99.99,,,0.00,Acu-Link.com,2013-07-27 13:48:00,
2013-07-27 09:04:00,57.4,46.9,29.96,North,0,2.2,-999.0,68,-99.99,,,0.00,Acu-Link.com,2013-07-27 14:04:00,
2013-07-27 09:19:00,58.3,47.4,29.96,NW,315,3.7,-999.0,67,-99.99,,,0.00,Acu-Link.com,2013-07-27 14:19:00,
2013-07-27 09:34:00,58.6,46.5,29.95,NNW,337,3.7,-999.0,64,-99.99,,,0.00,Acu-Link.com,2013-07-27 14:34:00,
2013-07-27 09:49:00,59.9,46.8,29.95,North,0,3.2,-999.0,62,-99.99,,,0.00,Acu-Link.com,2013-07-27 14:49:00,
2013-07-27 10:04:00,60.6,46.6,29.94,WNW,292,5.3,-999.0,60,-99.99,,,0.00,Acu-Link.com,2013-07-27 15:04:00,
2013-07-27 10:20:00,61.3,46.8,29.94,East,90,3.2,-999.0,59,-99.99,,,0.00,Acu-Link.com,2013-07-27 15:20:00,
2013-07-27 10:35:00,62.1,46.2,29.93,NNW,337,2.2,-999.0,56,-99.99,,,0.00,Acu-Link.com,2013-07-27 15:35:00,
2013-07-27 10:52:00,63.0,47.5,29.93,NE,45,2.7,-999.0,57,-99.99,,,0.00,Acu-Link.com,2013-07-27 15:52:00,
2013-07-27 11:07:00,63.9,46.4,29.93,NW,315,3.2,-999.0,53,-99.99,,,0.00,Acu-Link.com,2013-07-27 16:07:00,
2013-07-27 11:22:00,62.6,47.2,29.92,NE,45,3.2,-999.0,57,-99.99,,,0.00,Acu-Link.com,2013-07-27 16:22:00,
2013-07-27 11:38:00,63.3,47.3,29.92,NNE,22,2.7,-999.0,56,-99.99,,,0.00,Acu-Link.com,2013-07-27 16:38:00,
2013-07-27 11:53:00,63.9,46.4,29.91,WNW,292,2.7,-999.0,53,-99.99,,,0.00,Acu-Link.com,2013-07-27 16:53:00,
2013-07-27 12:08:00,64.9,46.3,29.90,West,270,2.7,-999.0,51,-99.99,,,0.00,Acu-Link.com,2013-07-27 17:08:00,
2013-07-27 12:23:00,65.3,45.1,29.90,WSW,247,2.2,-999.0,48,-99.99,,,0.00,Acu-Link.com,2013-07-27 17:23:00,
2013-07-27 12:39:00,66.6,46.3,29.90,NW,315,2.2,-999.0,48,-99.99,,,0.00,Acu-Link.com,2013-07-27 17:39:00,
2013-07-27 12:54:00,66.4,45.6,29.89,WNW,292,4.2,-999.0,47,-99.99,,,0.00,Acu-Link.com,2013-07-27 17:54:00,
2013-07-27 13:09:00,67.6,46.1,29.89,SW,225,2.7,-999.0,46,-99.99,,,0.00,Acu-Link.com,2013-07-27 18:09:00,
2013-07-27 13:24:00,68.0,46.4,29.89,NNE,22,2.2,-999.0,46,-99.99,,,0.00,Acu-Link.com,2013-07-27 18:24:00,
2013-07-27 13:40:00,66.0,45.7,29.89,NNW,337,2.7,-999.0,48,-99.99,,,0.00,Acu-Link.com,2013-07-27 18:40:00,
2013-07-27 13:55:00,70.0,46.5,29.88,ESE,112,4.7,-999.0,43,-99.99,,,0.00,Acu-Link.com,2013-07-27 18:55:00,
2013-07-27 14:10:00,67.5,44.8,29.88,ESE,112,1.7,-999.0,44,-99.99,,,0.00,Acu-Link.com,2013-07-27 19:10:00,
2013-07-27 14:25:00,68.5,46.3,29.87,WSW,247,2.2,-999.0,45,-99.99,,,0.00,Acu-Link.com,2013-07-27 19:25:00,
2013-07-27 14:40:00,69.3,46.4,29.86,North,0,2.7,-999.0,44,-99.99,,,0.00,Acu-Link.com,2013-07-27 19:40:00,
2013-07-27 14:56:00,68.2,46.0,29.87,West,270,2.2,-999.0,45,-99.99,,,0.00,Acu-Link.com,2013-07-27 19:56:00,
2013-07-27 15:11:00,67.6,44.9,29.86,North,0,2.7,-999.0,44,-99.99,,,0.00,Acu-Link.com,2013-07-27 20:11:00,
2013-07-27 15:41:00,68.7,45.9,29.85,North,0,3.2,-999.0,44,-99.99,,,0.00,Acu-Link.com,2013-07-27 20:41:00,
2013-07-27 16:12:00,69.3,45.2,29.85,North,0,3.2,-999.0,42,-99.99,,,0.00,Acu-Link.com,2013-07-27 21:12:00,
2013-07-27 16:27:00,69.3,45.8,29.85,WNW,292,3.2,-999.0,43,-99.99,,,0.00,Acu-Link.com,2013-07-27 21:27:00,
2013-07-27 16:42:00,68.9,46.1,29.84,NNE,22,2.7,-999.0,44,-99.99,,,0.00,Acu-Link.com,2013-07-27 21:42:00,
2013-07-27 16:58:00,67.8,45.7,29.84,West,270,2.7,-999.0,45,-99.99,,,0.00,Acu-Link.com,2013-07-27 21:58:00,
2013-07-27 17:13:00,68.4,46.2,29.84,NW,315,1.1,-999.0,45,-99.99,,,0.00,Acu-Link.com,2013-07-27 22:13:00,
2013-07-27 17:28:00,68.4,46.8,29.83,West,270,4.2,-999.0,46,-99.99,,,0.00,Acu-Link.com,2013-07-27 22:28:00,
2013-07-27 17:43:00,68.0,46.4,29.84,West,270,2.7,-999.0,46,-99.99,,,0.00,Acu-Link.com,2013-07-27 22:43:00,
2013-07-27 17:59:00,68.0,45.9,29.83,North,0,2.7,-999.0,45,-99.99,,,0.00,Acu-Link.com,2013-07-27 22:59:00,
2013-07-27 18:14:00,67.6,46.1,29.83,NW,315,3.2,-999.0,46,-99.99,,,0.00,Acu-Link.com,2013-07-27 23:14:00,
2013-07-27 18:29:00,68.4,45.6,29.83,West,270,4.2,-999.0,44,-99.99,,,0.00,Acu-Link.com,2013-07-27 23:29:00,
2013-07-27 18:45:00,67.8,46.3,29.82,WNW,292,3.7,-999.0,46,-99.99,,,0.00,Acu-Link.com,2013-07-27 23:45:00,
2013-07-27 19:00:00,67.1,46.7,29.82,WSW,247,2.7,-999.0,48,-99.99,,,0.00,Acu-Link.com,2013-07-28 00:00:00,
2013-07-27 19:15:00,66.7,46.9,29.83,WNW,292,1.7,-999.0,49,-99.99,,,0.00,Acu-Link.com,2013-07-28 00:15:00,
2013-07-27 19:47:00,66.0,46.3,29.83,WNW,292,1.7,-999.0,49,-99.99,,,0.00,Acu-Link.com,2013-07-28 00:47:00,
2013-07-27 20:02:00,65.3,46.7,29.83,North,0,0.0,-999.0,51,-99.99,,,0.00,Acu-Link.com,2013-07-28 01:02:00,
2013-07-27 20:18:00,64.6,47.1,29.84,NNW,337,4.2,-999.0,53,-99.99,,,0.00,Acu-Link.com,2013-07-28 01:18:00,
2013-07-27 20:35:00,62.1,48.5,29.84,North,0,2.2,-999.0,61,-99.99,,,0.00,Acu-Link.com,2013-07-28 01:35:00,
2013-07-27 20:50:00,61.0,48.7,29.84,NW,315,1.1,-999.0,64,-99.99,,,0.00,Acu-Link.com,2013-07-28 01:50:00,
2013-07-27 21:05:00,59.7,48.3,29.85,West,270,2.2,-999.0,66,-99.99,,,0.00,Acu-Link.com,2013-07-28 02:05:00,
2013-07-27 21:20:00,59.2,47.4,29.86,NW,315,2.7,-999.0,65,-99.99,,,0.00,Acu-Link.com,2013-07-28 02:20:00,
2013-07-27 21:36:00,58.5,45.5,29.86,North,0,2.7,-999.0,62,-99.99,,,0.00,Acu-Link.com,2013-07-28 02:36:00,
2013-07-27 21:51:00,58.3,44.9,29.86,WNW,292,4.2,-999.0,61,-99.99,,,0.00,Acu-Link.com,2013-07-28 02:51:00,
2013-07-27 22:06:00,57.7,45.2,29.86,NW,315,1.7,-999.0,63,-99.99,,,0.00,Acu-Link.com,2013-07-28 03:06:00,
2013-07-27 22:21:00,57.0,45.4,29.87,WSW,247,0.0,-999.0,65,-99.99,,,0.00,Acu-Link.com,2013-07-28 03:21:00,
2013-07-27 22:52:00,55.0,45.4,29.87,WNW,292,1.7,-999.0,70,-99.99,,,0.00,Acu-Link.com,2013-07-28 03:52:00,
2013-07-27 23:07:00,54.5,45.3,29.87,WNW,292,0.0,-999.0,71,-99.99,,,0.00,Acu-Link.com,2013-07-28 04:07:00,
2013-07-27 23:22:00,54.3,45.5,29.87,NW,315,0.0,-999.0,72,-99.99,,,0.00,Acu-Link.com,2013-07-28 04:22:00,
2013-07-27 23:37:00,53.8,45.7,29.87,West,270,0.0,-999.0,74,-99.99,,,0.00,Acu-Link.com,2013-07-28 04:37:00,
2013-07-27 23:52:00,52.9,44.8,29.87,WNW,292,0.0,-999.0,74,-99.99,,,0.00,Acu-Link.com,2013-07-28 04:52:00,